Time;durP1;ratioP1;P1;durP2;ratioP2;P2;SDS_P1;SDS_P2;PMS_P1;PMS_P2;Temp;Humidity;BMP_temperature;BMP_pressure;BME280_temperature;BME280_humidity;BME280_pressure;Samples;Min_cycle;Max_cycle;Signal;HPM_P1;HPM_P2
2021/01/06 00:00:38;;;;;;;1.77;1.40;;;12.00;69.40;;;;;;5132400;27;20445;-59
2021/01/06 00:03:05;;;;;;;1.30;1.30;;;12.00;69.60;;;;;;5134363;27;20470;-59
2021/01/06 00:05:32;;;;;;;1.57;1.37;;;12.00;69.70;;;;;;5134177;27;20514;-59
2021/01/06 00:07:58;;;;;;;1.57;1.57;;;12.10;69.50;;;;;;5131808;27;20485;-59
2021/01/06 00:10:26;;;;;;;1.70;1.60;;;12.00;69.50;;;;;;5133843;27;20434;-59
2021/01/06 00:12:53;;;;;;;1.40;1.30;;;12.00;69.70;;;;;;5133895;27;20531;-58
2021/01/06 00:15:22;;;;;;;1.90;1.80;;;12.00;69.60;;;;;;5133644;27;20491;-60
2021/01/06 00:17:49;;;;;;;1.57;1.57;;;12.00;70.20;;;;;;5128347;27;20451;-59
2021/01/06 00:20:16;;;;;;;1.67;1.57;;;12.10;69.30;;;;;;5133672;27;20557;-59
2021/01/06 00:22:42;;;;;;;1.47;1.33;;;12.10;69.50;;;;;;5134029;27;20443;-59
2021/01/06 00:25:10;;;;;;;1.60;1.50;;;12.10;69.20;;;;;;5132459;27;20470;-59
2021/01/06 00:27:38;;;;;;;4.40;1.50;;;12.10;69.40;;;;;;5134415;27;20487;-59
2021/01/06 00:30:09;;;;;;;1.80;1.70;;;12.10;69.40;;;;;;5134453;27;20492;-59
2021/01/06 00:32:36;;;;;;;1.50;1.40;;;12.00;69.50;;;;;;5130012;27;20535;-59
2021/01/06 00:35:04;;;;;;;2.07;1.50;;;12.00;69.50;;;;;;5134774;27;20533;-59
2021/01/06 00:37:31;;;;;;;1.70;1.60;;;12.00;69.50;;;;;;5135055;28;20486;-59
2021/01/06 00:39:58;;;;;;;1.67;1.57;;;12.00;70.10;;;;;;5134356;28;20473;-58
2021/01/06 00:42:24;;;;;;;1.80;1.70;;;12.00;69.30;;;;;;5134373;28;20553;-59
2021/01/06 00:44:53;;;;;;;1.60;1.60;;;12.00;69.40;;;;;;5135146;28;20443;-59
2021/01/06 00:47:21;;;;;;;1.57;1.40;;;12.00;69.40;;;;;;5134954;27;20443;-59
2021/01/06 00:49:47;;;;;;;1.60;1.50;;;12.00;69.60;;;;;;5134272;28;20460;-59
2021/01/06 00:52:14;;;;;;;1.97;1.47;;;12.00;69.60;;;;;;5125557;28;20436;-60
2021/01/06 00:54:41;;;;;;;2.20;1.83;;;12.00;69.70;;;;;;5114161;28;20478;-60
2021/01/06 00:57:11;;;;;;;2.00;1.57;;;12.00;69.50;;;;;;5114394;28;20459;-59
2021/01/06 00:59:38;;;;;;;2.97;1.63;;;12.00;69.50;;;;;;5113877;28;20440;-59
2021/01/06 01:02:05;;;;;;;1.83;1.73;;;12.00;69.30;;;;;;5114911;28;20539;-60
2021/01/06 01:04:33;;;;;;;1.50;1.50;;;12.00;69.30;;;;;;5114275;28;20460;-59
2021/01/06 01:06:59;;;;;;;1.63;1.47;;;12.00;69.60;;;;;;5114238;28;20439;-59
2021/01/06 01:09:26;;;;;;;1.57;1.47;;;11.90;69.60;;;;;;5113558;28;20476;-59
2021/01/06 01:11:53;;;;;;;1.37;1.27;;;12.00;69.50;;;;;;5113870;28;20493;-59
2021/01/06 01:14:20;;;;;;;1.37;1.37;;;12.00;69.50;;;;;;5114223;28;20458;-60
2021/01/06 01:16:49;;;;;;;2.50;1.50;;;12.00;69.50;;;;;;5114171;28;20480;-60
2021/01/06 01:19:16;;;;;;;1.47;1.47;;;12.00;69.40;;;;;;5113656;28;20435;-60
2021/01/06 01:21:44;;;;;;;5.80;1.60;;;12.00;69.40;;;;;;5114087;28;20500;-60
2021/01/06 01:24:10;;;;;;;1.77;1.67;;;12.00;70.20;;;;;;5113775;28;20462;-59
2021/01/06 01:26:39;;;;;;;1.83;1.40;;;12.00;69.30;;;;;;5114315;28;20464;-59
2021/01/06 01:29:06;;;;;;;1.83;1.60;;;11.90;69.60;;;;;;5113150;28;20544;-59
2021/01/06 01:31:33;;;;;;;2.07;1.40;;;11.90;69.50;;;;;;5114040;28;20496;-59
2021/01/06 01:34:00;;;;;;;2.83;1.60;;;11.90;69.40;;;;;;5114140;28;20530;-59
2021/01/06 01:36:27;;;;;;;1.70;1.60;;;12.00;69.50;;;;;;5113881;28;20471;-59
2021/01/06 01:38:55;;;;;;;2.00;1.50;;;12.00;69.30;;;;;;5117554;28;20435;-59
2021/01/06 01:41:23;;;;;;;1.40;1.30;;;12.00;69.40;;;;;;5113126;28;20452;-60
2021/01/06 01:43:50;;;;;;;1.67;1.20;;;11.90;69.50;;;;;;5117783;28;20555;-59
2021/01/06 01:46:33;;;;;;;1.33;1.33;;;11.90;69.60;;;;;;5134655;27;20510;-60
2021/01/06 01:49:04;;;;;;;1.57;1.47;;;11.90;69.60;;;;;;5137400;27;20502;-59
2021/01/06 01:51:35;;;;;;;1.43;1.33;;;11.90;69.70;;;;;;5132154;27;20480;-59
2021/01/06 01:54:04;;;;;;;1.20;1.20;;;11.90;69.70;;;;;;5134083;27;20453;-59
2021/01/06 01:56:38;;;;;;;1.77;1.67;;;11.90;69.70;;;;;;5135881;27;20526;-59
2021/01/06 01:59:06;;;;;;;1.73;1.33;;;11.90;69.70;;;;;;5116899;28;20427;-58
2021/01/06 02:01:33;;;;;;;1.40;1.40;;;11.90;69.60;;;;;;5117735;28;20454;-59
2021/01/06 02:04:02;;;;;;;1.90;1.80;;;11.80;69.60;;;;;;5134780;27;20443;-59
2021/01/06 02:06:30;;;;;;;1.70;1.60;;;11.90;69.50;;;;;;5137873;27;20500;-59
2021/01/06 02:09:01;;;;;;;1.80;1.43;;;11.90;69.40;;;;;;5137224;27;20586;-58
2021/01/06 02:11:34;;;;;;;1.80;1.70;;;11.90;69.60;;;;;;5137506;27;20482;-58
2021/01/06 02:14:05;;;;;;;1.40;1.40;;;11.80;69.70;;;;;;5137599;27;20474;-59
2021/01/06 02:16:35;;;;;;;1.40;1.30;;;11.90;69.60;;;;;;5137633;27;20486;-59
2021/01/06 02:19:02;;;;;;;1.60;1.50;;;11.90;69.50;;;;;;5137464;27;20466;-59
2021/01/06 02:21:29;;;;;;;1.40;1.40;;;11.90;69.70;;;;;;5122393;27;20481;-59
2021/01/06 02:27:43;;;;;;;1.43;1.33;;;11.90;69.60;;;;;;5115460;28;20419;-59
2021/01/06 02:30:11;;;;;;;1.40;1.40;;;11.80;69.70;;;;;;5116504;27;20475;-59
2021/01/06 02:32:38;;;;;;;2.07;1.60;;;11.80;69.80;;;;;;5116885;28;20424;-59
2021/01/06 02:35:06;;;;;;;1.60;1.50;;;11.80;69.90;;;;;;5116721;28;20428;-58
2021/01/06 02:37:33;;;;;;;1.50;1.40;;;11.80;69.80;;;;;;5117085;27;20522;-58
2021/01/06 02:40:00;;;;;;;1.33;1.33;;;11.80;69.80;;;;;;5116181;28;20448;-56
2021/01/06 02:42:27;;;;;;;1.37;1.30;;;11.80;69.70;;;;;;5111528;28;20507;-59
2021/01/06 02:44:54;;;;;;;1.33;1.23;;;11.80;69.50;;;;;;5116586;28;20440;-57
2021/01/06 02:47:21;;;;;;;1.40;1.30;;;11.80;69.70;;;;;;5116910;27;20461;-58
2021/01/06 02:49:48;;;;;;;1.77;1.40;;;11.80;69.60;;;;;;5114697;28;20609;-59
2021/01/06 02:52:16;;;;;;;2.40;1.33;;;11.70;70.60;;;;;;5116676;28;20467;-59
2021/01/06 02:54:45;;;;;;;1.70;1.60;;;11.80;69.70;;;;;;5116855;28;20467;-59
2021/01/06 02:57:12;;;;;;;1.40;1.30;;;11.80;69.70;;;;;;5116355;27;20486;-58
2021/01/06 02:59:41;;;;;;;1.50;1.40;;;11.80;69.60;;;;;;5116104;28;20467;-59
2021/01/06 03:02:08;;;;;;;1.53;1.47;;;11.80;69.70;;;;;;5116476;28;20473;-59
2021/01/06 03:04:38;;;;;;;2.50;1.50;;;11.80;69.60;;;;;;5122014;27;20526;-59
2021/01/06 03:07:06;;;;;;;1.30;1.30;;;11.80;69.40;;;;;;5136583;27;20431;-59
2021/01/06 03:09:33;;;;;;;1.40;1.30;;;11.80;69.40;;;;;;5135949;27;20466;-59
2021/01/06 03:12:03;;;;;;;1.53;1.43;;;11.80;69.30;;;;;;5136214;27;20494;-59
2021/01/06 03:14:30;;;;;;;1.23;1.20;;;11.80;69.30;;;;;;5121821;27;20519;-59
2021/01/06 03:16:57;;;;;;;1.67;1.60;;;11.80;69.40;;;;;;5115848;28;20468;-58
2021/01/06 03:19:24;;;;;;;1.63;1.53;;;11.70;69.60;;;;;;5115562;28;20446;-55
2021/01/06 03:21:51;;;;;;;1.40;1.30;;;11.70;69.70;;;;;;5117484;27;20428;-59
2021/01/06 03:24:21;;;;;;;1.43;1.33;;;11.70;69.70;;;;;;5136009;27;20469;-59
2021/01/06 03:26:48;;;;;;;1.80;1.10;;;11.70;69.80;;;;;;5136442;27;20562;-59
2021/01/06 03:29:15;;;;;;;1.43;1.40;;;11.80;69.70;;;;;;5135677;27;20478;-59
2021/01/06 03:31:46;;;;;;;1.60;1.50;;;11.80;70.20;;;;;;5125079;27;20444;-59
2021/01/06 03:34:18;;;;;;;1.27;1.20;;;11.70;69.60;;;;;;5115836;28;20436;-57
2021/01/06 03:36:46;;;;;;;1.40;1.40;;;11.70;69.60;;;;;;5115458;28;20531;-58
2021/01/06 03:39:16;;;;;;;1.40;1.30;;;11.80;69.70;;;;;;5114965;28;20516;-57
2021/01/06 03:41:43;;;;;;;1.27;1.20;;;11.70;69.70;;;;;;5135684;27;20546;-59
2021/01/06 03:44:10;;;;;;;1.83;1.73;;;11.70;69.90;;;;;;5135951;27;20451;-59
2021/01/06 03:46:44;;;;;;;1.73;1.63;;;11.80;69.70;;;;;;5136142;27;20478;-59
2021/01/06 03:49:16;;;;;;;1.40;1.30;;;11.80;69.70;;;;;;5126577;27;20511;-57
2021/01/06 03:51:48;;;;;;;1.90;1.80;;;11.70;69.70;;;;;;5115342;28;20479;-58
2021/01/06 03:54:21;;;;;;;1.30;1.30;;;11.70;69.70;;;;;;5115305;28;20481;-60
2021/01/06 03:56:48;;;;;;;1.47;1.37;;;11.70;69.60;;;;;;5110633;28;20556;-56
2021/01/06 03:59:16;;;;;;;1.70;1.60;;;11.70;69.80;;;;;;5114183;28;20440;-59
2021/01/06 04:01:50;;;;;;;1.57;1.50;;;11.70;69.70;;;;;;5115013;28;20491;-59
2021/01/06 04:04:21;;;;;;;1.37;1.30;;;11.70;69.60;;;;;;5115270;28;20455;-58
2021/01/06 04:06:49;;;;;;;1.60;1.50;;;11.70;69.60;;;;;;5115463;28;20436;-59
2021/01/06 04:09:19;;;;;;;1.67;1.47;;;11.70;69.60;;;;;;5114328;28;20471;-59
2021/01/06 04:11:46;;;;;;;1.53;1.53;;;11.80;69.50;;;;;;5114643;28;20517;-58
2021/01/06 04:14:13;;;;;;;2.43;1.80;;;11.70;69.50;;;;;;5114801;28;20424;-59
2021/01/06 04:16:40;;;;;;;1.30;1.30;;;11.70;69.60;;;;;;5115405;28;20514;-60
2021/01/06 04:19:08;;;;;;;1.40;1.30;;;11.70;69.70;;;;;;5114175;28;20452;-59
2021/01/06 04:21:35;;;;;;;1.47;1.37;;;11.70;69.70;;;;;;5114845;28;20443;-59
2021/01/06 04:24:02;;;;;;;1.30;1.20;;;11.70;69.70;;;;;;5115356;27;20440;-58
2021/01/06 04:26:29;;;;;;;1.70;1.60;;;11.70;69.60;;;;;;5114594;28;20494;-58
2021/01/06 04:28:55;;;;;;;1.67;1.57;;;11.60;69.70;;;;;;5113783;28;20493;-57
2021/01/06 04:31:22;;;;;;;1.80;1.70;;;11.70;69.70;;;;;;5114594;28;20463;-58
2021/01/06 04:33:50;;;;;;;1.53;1.43;;;11.70;69.70;;;;;;5115211;27;20443;-58
2021/01/06 04:36:20;;;;;;;1.90;1.80;;;11.70;69.40;;;;;;5114905;28;20435;-59
2021/01/06 04:38:57;;;;;;;1.53;1.43;;;11.70;69.40;;;;;;5114339;28;20725;-59
2021/01/06 04:41:35;;;;;;;1.20;1.20;;;11.70;69.50;;;;;;5114179;28;20491;-56
2021/01/06 04:44:07;;;;;;;1.13;1.13;;;11.70;69.40;;;;;;5114678;28;20546;-57
2021/01/06 04:46:46;;;;;;;1.60;1.50;;;11.70;69.50;;;;;;5114644;28;20485;-56
2021/01/06 04:49:17;;;;;;;1.50;1.40;;;11.60;69.50;;;;;;5113988;28;20467;-56
2021/01/06 04:51:59;;;;;;;1.60;1.47;;;11.70;69.50;;;;;;5127797;28;20514;-59
2021/01/06 04:54:48;;;;;;;1.50;1.40;;;11.70;69.50;;;;;;5135172;28;20480;-55
2021/01/06 04:57:39;;;;;;;1.43;1.33;;;11.60;69.60;;;;;;5134830;28;20494;-53
2021/01/06 05:00:39;;;;;;;1.40;1.30;;;11.70;69.50;;;;;;5131606;27;20443;-57
2021/01/06 05:03:45;;;;;;;1.23;1.20;;;11.70;69.50;;;;;;5135023;27;20496;-57
2021/01/06 05:06:33;;;;;;;1.20;1.20;;;11.70;69.50;;;;;;5052097;28;20525;-57
2021/01/06 05:09:09;;;;;;;1.23;1.23;;;11.60;69.50;;;;;;5061255;28;20574;-58
2021/01/06 05:11:38;;;;;;;1.30;1.30;;;11.60;69.70;;;;;;5094940;28;20550;-58
2021/01/06 05:14:06;;;;;;;1.70;1.60;;;11.60;69.60;;;;;;5118131;28;20440;-58
2021/01/06 05:16:35;;;;;;;1.20;1.20;;;11.60;69.60;;;;;;5118366;28;20483;-59
2021/01/06 05:19:02;;;;;;;2.13;1.73;;;11.60;69.50;;;;;;5138060;27;20439;-57
2021/01/06 05:21:29;;;;;;;1.70;1.60;;;11.60;69.80;;;;;;5138895;27;20458;-55
2021/01/06 05:23:59;;;;;;;1.53;1.43;;;11.60;69.60;;;;;;5139113;27;20481;-58
2021/01/06 05:26:27;;;;;;;1.60;1.50;;;11.70;69.50;;;;;;5138486;27;20488;-58
2021/01/06 05:28:54;;;;;;;1.57;1.57;;;11.70;69.50;;;;;;5138107;27;20553;-58
2021/01/06 05:31:21;;;;;;;1.60;1.50;;;11.70;69.40;;;;;;5138845;27;20457;-58
2021/01/06 05:33:49;;;;;;;1.60;1.50;;;11.60;69.80;;;;;;5138759;27;20439;-57
2021/01/06 05:36:20;;;;;;;1.67;1.57;;;11.60;69.60;;;;;;5138977;27;20439;-53
2021/01/06 05:38:47;;;;;;;1.57;1.47;;;11.60;69.50;;;;;;5137979;27;20454;-54
2021/01/06 05:41:14;;;;;;;1.50;1.40;;;11.60;69.70;;;;;;5138453;27;20496;-52
2021/01/06 05:43:43;;;;;;;1.70;1.60;;;11.70;70.30;;;;;;5134437;27;20468;-50
2021/01/06 05:46:21;;;;;;;1.60;1.50;;;11.60;69.60;;;;;;5117374;28;20465;-50
2021/01/06 05:48:50;;;;;;;1.37;1.33;;;11.60;69.70;;;;;;5116997;27;20558;-50
2021/01/06 05:51:21;;;;;;;1.67;1.57;;;11.60;69.70;;;;;;5117781;28;20433;-54
2021/01/06 05:53:55;;;;;;;1.67;1.57;;;11.60;69.70;;;;;;5117613;27;20478;-55
2021/01/06 05:56:40;;;;;;;1.37;1.37;;;11.60;69.50;;;;;;5117233;28;20459;-54
2021/01/06 05:59:17;;;;;;;1.17;1.17;;;11.60;69.60;;;;;;5114476;28;20468;-54
2021/01/06 06:01:46;;;;;;;1.10;1.10;;;11.60;69.60;;;;;;5117774;27;20443;-51
2021/01/06 06:04:21;;;;;;;1.50;1.40;;;11.60;70.30;;;;;;5117724;28;20451;-54
2021/01/06 06:06:54;;;;;;;1.47;1.20;;;11.60;69.60;;;;;;5117128;28;20435;-53
2021/01/06 06:09:49;;;;;;;1.73;1.30;;;11.60;69.60;;;;;;5116888;28;20565;-53
2021/01/06 06:12:37;;;;;;;1.40;1.40;;;11.60;69.70;;;;;;5112243;28;20542;-53
2021/01/06 06:15:45;;;;;;;1.50;1.40;;;11.60;69.80;;;;;;5117041;28;20522;-55
2021/01/06 06:18:31;;;;;;;1.47;1.37;;;11.50;69.70;;;;;;5117314;28;20464;-55
2021/01/06 06:20:59;;;;;;;1.93;1.40;;;11.50;69.90;;;;;;5117013;27;20532;-60
2021/01/06 06:23:59;;;;;;;1.57;1.40;;;11.60;69.90;;;;;;5116563;28;20438;-58
2021/01/06 06:26:28;;;;;;;2.17;1.47;;;11.50;69.70;;;;;;5116785;28;20424;-57
2021/01/06 06:28:57;;;;;;;1.37;1.27;;;11.50;69.80;;;;;;5116430;28;20570;-55
2021/01/06 06:31:28;;;;;;;6.67;1.47;;;11.50;70.00;;;;;;5116979;28;20460;-57
2021/01/06 06:33:56;;;;;;;1.60;1.50;;;11.50;69.90;;;;;;5116954;28;20481;-59
2021/01/06 06:36:25;;;;;;;1.30;1.30;;;11.60;69.80;;;;;;5117200;27;20442;-59
2021/01/06 06:38:52;;;;;;;1.20;1.20;;;11.60;69.70;;;;;;5136940;27;20435;-59
2021/01/06 06:41:31;;;;;;;1.67;1.57;;;11.50;69.60;;;;;;5137092;27;20531;-59
2021/01/06 06:44:31;;;;;;;1.43;1.33;;;11.50;69.70;;;;;;5137335;27;20473;-58
2021/01/06 06:47:11;;;;;;;1.60;1.50;;;11.50;69.90;;;;;;5094374;28;20440;-58
2021/01/06 06:50:08;;;;;;;1.50;1.40;;;11.50;70.00;;;;;;5093730;28;20600;-59
2021/01/06 06:52:38;;;;;;;1.17;1.17;;;11.50;69.90;;;;;;5125526;27;20431;-59
2021/01/06 06:55:12;;;;;;;1.50;1.40;;;11.50;69.80;;;;;;5128604;27;20512;-58
2021/01/06 06:57:40;;;;;;;1.20;1.10;;;11.50;69.90;;;;;;5116423;28;20532;-58
2021/01/06 07:00:13;;;;;;;1.30;1.30;;;11.50;69.90;;;;;;5115846;28;20534;-59
2021/01/06 07:02:45;;;;;;;1.30;1.30;;;11.50;69.90;;;;;;5116290;28;20509;-55
2021/01/06 07:05:18;;;;;;;1.30;1.30;;;11.50;69.90;;;;;;5116135;27;20543;-59
2021/01/06 07:07:46;;;;;;;1.37;1.30;;;11.50;69.80;;;;;;5116345;28;20527;-58
2021/01/06 07:10:19;;;;;;;1.83;1.73;;;11.60;69.80;;;;;;5115613;28;20479;-58
2021/01/06 07:12:45;;;;;;;1.20;1.20;;;11.50;69.70;;;;;;5116098;27;20510;-59
2021/01/06 07:15:20;;;;;;;1.30;1.30;;;11.60;69.70;;;;;;5116109;28;20471;-58
2021/01/06 07:17:48;;;;;;;1.80;1.43;;;11.60;70.40;;;;;;5116135;28;20481;-57
2021/01/06 07:20:18;;;;;;;1.53;1.43;;;11.50;69.50;;;;;;5115232;28;20446;-58
2021/01/06 07:22:46;;;;;;;1.47;1.37;;;11.60;69.60;;;;;;5116349;27;20463;-59
2021/01/06 07:25:22;;;;;;;1.67;1.57;;;11.50;69.50;;;;;;5116001;28;20440;-57
2021/01/06 07:27:51;;;;;;;1.30;1.30;;;11.50;69.60;;;;;;5116543;28;20606;-59
2021/01/06 07:30:28;;;;;;;1.73;1.63;;;11.50;69.80;;;;;;5115199;28;20538;-59
2021/01/06 07:32:55;;;;;;;1.67;1.60;;;11.60;69.60;;;;;;5111611;28;20550;-59
2021/01/06 07:35:25;;;;;;;1.50;1.40;;;11.50;69.70;;;;;;5115310;28;20432;-59
2021/01/06 07:37:56;;;;;;;1.57;1.47;;;11.50;69.60;;;;;;5115764;28;20455;-58
2021/01/06 07:40:25;;;;;;;1.60;1.50;;;11.50;69.60;;;;;;5115150;28;20520;-59
2021/01/06 07:42:53;;;;;;;1.20;1.20;;;11.60;69.50;;;;;;5115333;28;20506;-59
2021/01/06 07:45:29;;;;;;;1.43;1.40;;;11.50;69.60;;;;;;5115465;28;20440;-59
2021/01/06 07:48:17;;;;;;;1.70;1.60;;;11.50;69.50;;;;;;5115836;28;20475;-59
2021/01/06 07:50:48;;;;;;;17.47;1.77;;;11.50;69.60;;;;;;5101807;28;20544;-59
2021/01/06 07:53:17;;;;;;;1.83;1.73;;;11.50;69.50;;;;;;5115874;28;20467;-59
2021/01/06 07:55:51;;;;;;;1.60;1.50;;;11.50;69.50;;;;;;5115087;28;20495;-57
2021/01/06 07:58:28;;;;;;;1.20;1.20;;;11.50;69.70;;;;;;5115553;28;20443;-59
2021/01/06 08:00:59;;;;;;;1.57;1.47;;;11.50;69.80;;;;;;5114676;28;20538;-59
2021/01/06 08:03:29;;;;;;;1.70;1.60;;;11.40;69.70;;;;;;5115049;28;20465;-58
2021/01/06 08:05:57;;;;;;;1.50;1.40;;;11.50;69.60;;;;;;5115395;27;20463;-59
2021/01/06 08:08:24;;;;;;;1.70;1.60;;;11.50;69.50;;;;;;5115062;28;20469;-58
2021/01/06 08:10:51;;;;;;;1.60;1.50;;;11.50;69.50;;;;;;5114404;28;20467;-59
2021/01/06 08:13:21;;;;;;;1.57;1.47;;;11.50;69.30;;;;;;5114936;28;20440;-58
2021/01/06 08:15:49;;;;;;;1.40;1.30;;;11.50;69.30;;;;;;5114870;28;20436;-59
2021/01/06 08:18:50;;;;;;;1.67;1.57;;;11.60;69.30;;;;;;5114929;28;20478;-59
2021/01/06 08:21:22;;;;;;;1.60;1.50;;;11.50;69.20;;;;;;5103099;28;20520;-59
2021/01/06 08:24:09;;;;;;;3.33;2.03;;;11.60;69.20;;;;;;5126880;27;20438;-59
2021/01/06 08:26:36;;;;;;;1.77;1.50;;;11.50;69.40;;;;;;5135025;27;20427;-59
2021/01/06 08:29:10;;;;;;;1.50;1.40;;;11.50;69.30;;;;;;5134808;27;20517;-58
2021/01/06 08:31:37;;;;;;;1.40;1.30;;;11.60;69.20;;;;;;5135126;27;20509;-59
2021/01/06 08:34:05;;;;;;;1.43;1.33;;;11.60;69.20;;;;;;5135719;27;20496;-59
2021/01/06 08:36:33;;;;;;;1.37;1.37;;;11.60;69.20;;;;;;5135250;27;20525;-59
2021/01/06 08:39:08;;;;;;;1.57;1.47;;;11.50;69.20;;;;;;5134352;27;20423;-58
2021/01/06 08:41:35;;;;;;;1.57;1.47;;;11.60;69.00;;;;;;5123928;28;20491;-59
2021/01/06 08:44:03;;;;;;;1.50;1.40;;;11.60;69.20;;;;;;5114684;28;20475;-59
2021/01/06 08:46:32;;;;;;;1.80;1.70;;;11.60;69.00;;;;;;5116853;28;20481;-59
2021/01/06 08:49:16;;;;;;;1.60;1.50;;;11.70;68.80;;;;;;5118252;28;20467;-59
2021/01/06 08:51:44;;;;;;;1.77;1.50;;;11.80;68.70;;;;;;5119044;28;20471;-59
2021/01/06 08:54:16;;;;;;;1.40;1.40;;;11.80;68.60;;;;;;5119040;28;20504;-59
2021/01/06 08:56:43;;;;;;;1.30;1.30;;;11.70;68.80;;;;;;5118751;28;20465;-59
2021/01/06 08:59:24;;;;;;;1.40;1.40;;;11.60;68.90;;;;;;5118386;27;20492;-59
2021/01/06 09:01:51;;;;;;;1.70;1.60;;;11.70;68.70;;;;;;5118590;28;20538;-58
2021/01/06 09:04:21;;;;;;;1.97;1.87;;;11.70;68.90;;;;;;5118812;28;20465;-59
2021/01/06 09:06:49;;;;;;;1.30;1.30;;;11.60;68.90;;;;;;5118731;27;20482;-59
2021/01/06 09:09:34;;;;;;;1.47;1.40;;;11.60;68.90;;;;;;5117933;28;20543;-59
2021/01/06 09:12:00;;;;;;;1.60;1.50;;;11.60;69.10;;;;;;5118262;28;20470;-59
2021/01/06 09:14:31;;;;;;;1.63;1.63;;;11.60;69.10;;;;;;5118158;28;20453;-58
2021/01/06 09:17:01;;;;;;;1.33;1.30;;;11.60;69.00;;;;;;5118607;27;20523;-59
2021/01/06 09:19:34;;;;;;;1.30;1.30;;;11.60;69.00;;;;;;5117669;28;20508;-58
2021/01/06 09:22:00;;;;;;;1.73;1.47;;;11.60;69.00;;;;;;5118182;28;20509;-59
2021/01/06 09:24:28;;;;;;;1.40;1.30;;;11.70;69.00;;;;;;5118047;28;20446;-58
2021/01/06 09:26:57;;;;;;;1.60;1.50;;;11.60;69.00;;;;;;5117918;28;20474;-58
2021/01/06 09:29:25;;;;;;;1.80;1.70;;;11.70;69.50;;;;;;5117625;28;20467;-59
2021/01/06 09:31:53;;;;;;;1.70;1.60;;;11.60;69.00;;;;;;5117820;28;20478;-59
2021/01/06 09:34:21;;;;;;;1.17;1.17;;;11.70;69.10;;;;;;5130054;27;20459;-59
2021/01/06 09:36:48;;;;;;;1.50;1.50;;;11.70;68.90;;;;;;5117710;28;20504;-58
2021/01/06 09:39:17;;;;;;;1.50;1.40;;;11.60;69.20;;;;;;5117187;28;20440;-58
2021/01/06 09:41:43;;;;;;;1.40;1.30;;;11.60;69.00;;;;;;5117832;28;20486;-56
2021/01/06 09:44:11;;;;;;;2.40;1.77;;;11.60;69.10;;;;;;5118025;27;20516;-57
2021/01/06 09:46:49;;;;;;;1.43;1.37;;;11.70;69.20;;;;;;5117876;28;20475;-57
2021/01/06 09:49:18;;;;;;;1.40;1.40;;;11.60;69.10;;;;;;5117165;28;20543;-58
2021/01/06 09:51:47;;;;;;;1.47;1.37;;;11.70;69.20;;;;;;5117352;27;20447;-59
2021/01/06 09:54:15;;;;;;;1.43;1.33;;;11.70;69.10;;;;;;5117592;28;20470;-58
2021/01/06 09:56:42;;;;;;;1.60;1.50;;;11.70;69.60;;;;;;5117866;28;20436;-58
2021/01/06 09:59:16;;;;;;;1.90;1.80;;;11.80;68.80;;;;;;5116574;28;20440;-58
2021/01/06 10:01:47;;;;;;;1.77;1.67;;;11.80;69.30;;;;;;5133121;27;20451;-57
2021/01/06 10:04:15;;;;;;;1.43;1.43;;;11.80;68.50;;;;;;5138419;27;20518;-58
2021/01/06 10:06:48;;;;;;;1.77;1.67;;;11.80;68.60;;;;;;5138081;27;20466;-56
2021/01/06 10:09:21;;;;;;;1.80;1.70;;;11.90;68.40;;;;;;5137138;27;20494;-56
2021/01/06 10:12:22;;;;;;;2.20;1.80;;;12.00;68.40;;;;;;5138170;27;20431;-59
2021/01/06 10:14:59;;;;;;;1.50;1.40;;;11.90;68.30;;;;;;5137823;27;20419;-58
2021/01/06 10:17:27;;;;;;;1.97;1.87;;;11.90;69.20;;;;;;5137750;27;20427;-58
2021/01/06 10:19:58;;;;;;;1.50;1.50;;;11.90;68.60;;;;;;5117382;27;20468;-58
2021/01/06 10:22:31;;;;;;;1.40;1.30;;;11.90;68.60;;;;;;5117246;28;20531;-58
2021/01/06 10:25:09;;;;;;;1.60;1.50;;;11.90;68.60;;;;;;5117033;28;20473;-58
2021/01/06 10:27:37;;;;;;;1.63;1.53;;;11.90;68.70;;;;;;5128773;27;20462;-59
2021/01/06 10:30:10;;;;;;;1.93;1.83;;;11.90;68.50;;;;;;5133253;27;20463;-59
2021/01/06 10:32:49;;;;;;;1.50;1.50;;;12.00;68.20;;;;;;5136400;27;20455;-59
2021/01/06 10:35:32;;;;;;;1.40;1.40;;;12.00;68.10;;;;;;5136076;27;20530;-59
2021/01/06 10:37:59;;;;;;;1.83;1.73;;;12.00;67.80;;;;;;5135879;27;20427;-58
2021/01/06 10:40:35;;;;;;;2.00;1.90;;;12.10;67.70;;;;;;5133114;27;20488;-58
2021/01/06 10:43:35;;;;;;;1.87;1.77;;;12.10;67.50;;;;;;5134464;27;20517;-58
2021/01/06 10:46:03;;;;;;;1.97;1.87;;;12.00;67.40;;;;;;5131507;27;20420;-58
2021/01/06 10:48:40;;;;;;;10.03;1.90;;;12.00;67.60;;;;;;5136056;27;20466;-58
2021/01/06 10:51:08;;;;;;;1.93;1.83;;;12.00;67.40;;;;;;5136033;27;20599;-58
2021/01/06 10:53:38;;;;;;;1.83;1.73;;;12.00;67.40;;;;;;5133104;27;20478;-59
2021/01/06 10:56:08;;;;;;;2.17;1.97;;;12.00;67.30;;;;;;5135828;27;20427;-59
2021/01/06 10:58:43;;;;;;;1.77;1.67;;;12.10;67.20;;;;;;5135414;27;20486;-59
2021/01/06 11:01:47;;;;;;;1.87;1.83;;;12.10;67.10;;;;;;5135525;27;20431;-61
2021/01/06 11:04:48;;;;;;;2.43;2.20;;;12.10;67.10;;;;;;5134644;27;20423;-59
2021/01/06 11:07:21;;;;;;;2.20;2.00;;;12.10;67.00;;;;;;5130822;27;20459;-59
2021/01/06 11:10:04;;;;;;;1.97;1.87;;;12.10;66.80;;;;;;5128517;27;20463;-61
2021/01/06 11:12:38;;;;;;;2.33;2.07;;;12.20;66.80;;;;;;5132311;27;20563;-59
2021/01/06 11:15:22;;;;;;;2.50;2.30;;;12.10;66.70;;;;;;5135971;27;20429;-59
2021/01/06 11:18:03;;;;;;;2.70;2.13;;;12.10;66.90;;;;;;5135407;27;20451;-57
2021/01/06 11:20:34;;;;;;;2.60;2.00;;;12.10;66.80;;;;;;5130148;27;20427;-59
2021/01/06 11:23:21;;;;;;;2.00;1.87;;;12.10;66.70;;;;;;5135159;27;20448;-59
2021/01/06 11:25:49;;;;;;;2.33;2.23;;;12.10;66.60;;;;;;5133466;27;20427;-59
2021/01/06 11:28:41;;;;;;;2.03;1.83;;;12.20;66.40;;;;;;5135272;27;20518;-59
2021/01/06 11:31:21;;;;;;;2.80;1.93;;;12.20;66.40;;;;;;5133647;27;20455;-57
2021/01/06 11:33:48;;;;;;;1.80;1.70;;;12.10;66.70;;;;;;5133040;27;20496;-59
2021/01/06 11:36:38;;;;;;;2.63;2.10;;;12.00;66.80;;;;;;5134737;27;20435;-59
2021/01/06 11:39:05;;;;;;;2.10;2.00;;;12.00;66.90;;;;;;5134201;27;20423;-60
2021/01/06 11:41:58;;;;;;;2.40;2.20;;;12.00;66.80;;;;;;5135015;27;20553;-59
2021/01/06 11:44:34;;;;;;;1.73;1.63;;;12.00;66.70;;;;;;5133310;27;20435;-59
2021/01/06 11:47:24;;;;;;;2.10;1.90;;;12.00;66.60;;;;;;5132470;27;20435;-59
2021/01/06 11:49:55;;;;;;;2.40;2.20;;;12.00;66.60;;;;;;5131385;27;20550;-59
2021/01/06 11:52:39;;;;;;;3.53;2.37;;;12.00;66.70;;;;;;5134671;27;20419;-59
2021/01/06 11:55:25;;;;;;;2.33;2.23;;;12.00;66.70;;;;;;5132222;27;20423;-59
2021/01/06 11:57:59;;;;;;;2.70;2.50;;;12.00;66.60;;;;;;5124975;27;20462;-59
2021/01/06 12:00:49;;;;;;;3.30;3.00;;;12.10;66.40;;;;;;5134611;27;20446;-60
2021/01/06 12:03:24;;;;;;;2.03;1.93;;;12.20;66.40;;;;;;5135537;27;20515;-59
2021/01/06 12:05:58;;;;;;;3.03;2.83;;;12.20;66.40;;;;;;5117917;27;20459;-59
2021/01/06 12:08:28;;;;;;;2.60;2.40;;;12.10;66.50;;;;;;5114922;28;20544;-59
2021/01/06 12:11:04;;;;;;;2.70;2.50;;;12.20;66.50;;;;;;5114532;28;20507;-59
2021/01/06 12:13:37;;;;;;;2.80;2.60;;;12.20;66.60;;;;;;5122291;27;20439;-58
2021/01/06 12:16:10;;;;;;;2.67;2.47;;;12.20;66.70;;;;;;5135625;27;20535;-59
2021/01/06 12:19:07;;;;;;;2.90;2.57;;;12.20;66.80;;;;;;5135041;27;20543;-59
2021/01/06 12:21:46;;;;;;;2.60;2.50;;;12.20;66.80;;;;;;5134805;27;20449;-56
2021/01/06 12:24:47;;;;;;;2.90;2.70;;;12.10;66.90;;;;;;5133666;27;20438;-59
2021/01/06 12:27:45;;;;;;;2.43;2.33;;;12.10;67.30;;;;;;5133518;27;20513;-57
2021/01/06 12:30:40;;;;;;;2.73;2.47;;;12.10;67.30;;;;;;5109578;27;20488;-58
2021/01/06 12:33:23;;;;;;;2.70;2.50;;;12.10;67.30;;;;;;5132943;27;20551;-52
2021/01/06 12:35:50;;;;;;;2.73;2.53;;;12.20;67.30;;;;;;5132834;27;20554;-58
2021/01/06 12:38:23;;;;;;;2.87;2.57;;;12.20;67.10;;;;;;5134489;27;20441;-59
2021/01/06 12:41:08;;;;;;;2.97;2.10;;;12.20;67.40;;;;;;5133460;27;20423;-59
2021/01/06 12:43:38;;;;;;;4.30;2.63;;;12.20;67.50;;;;;;5133399;27;20463;-60
2021/01/06 12:46:07;;;;;;;3.17;2.63;;;12.10;67.80;;;;;;5132125;28;20449;-59
2021/01/06 12:48:50;;;;;;;2.40;2.30;;;12.10;68.10;;;;;;5133180;28;20427;-60
2021/01/06 12:51:19;;;;;;;3.33;2.30;;;12.10;68.00;;;;;;5130730;28;20462;-58
2021/01/06 12:53:54;;;;;;;2.73;2.53;;;12.10;67.90;;;;;;5133367;28;20498;-60
2021/01/06 12:56:28;;;;;;;2.47;2.30;;;12.10;68.00;;;;;;5131195;28;20462;-59
2021/01/06 12:59:07;;;;;;;2.37;2.27;;;12.10;68.10;;;;;;5128865;28;20537;-59
2021/01/06 13:01:41;;;;;;;2.40;2.20;;;12.10;68.10;;;;;;5132070;28;20431;-60
2021/01/06 13:04:09;;;;;;;2.93;2.13;;;12.10;68.20;;;;;;5114642;28;20424;-59
2021/01/06 13:06:43;;;;;;;2.67;2.47;;;12.10;68.40;;;;;;5122497;28;20430;-58
2021/01/06 13:09:29;;;;;;;2.30;2.20;;;12.10;68.60;;;;;;5134028;28;20431;-59
2021/01/06 13:12:00;;;;;;;2.30;2.10;;;12.10;68.70;;;;;;5134415;28;20466;-60
2021/01/06 13:14:43;;;;;;;1.93;1.83;;;12.10;68.70;;;;;;5134742;28;20435;-60
2021/01/06 13:17:23;;;;;;;3.70;2.67;;;12.10;68.80;;;;;;5133414;28;20431;-59
2021/01/06 13:20:26;;;;;;;2.10;2.00;;;12.10;68.70;;;;;;5132728;28;20544;-60